Terminal Aerodrome Forecast
Issued by NWS Tuscon, AZ

Home | Current Version | Previous Version | Text Only | Print | Product List | Glossary On
Versions: 1 2 3 4 5 6 7 8 9 10 11 12 13
830
FTUS45 KTWC 260539
TAFDUG
TAF
KDUG 260539Z 2606/2706 18008KT P6SM SCT090 BKN140
     FM260700 10005KT P6SM FEW090 SCT140
     FM261600 18006KT P6SM SCT070 SCT140
     FM262100 24008KT P6SM VCTS SCT080CB SCT140=

USA.gov is the U.S. government's official web portal to all federal, state and local government web resources and services.